createdAt,value
2023-04-15T00:01:44.509Z,6.86
2023-04-15T00:04:11.388Z,6.34
2023-04-15T00:06:39.395Z,6.29
2023-04-15T00:09:07.006Z,7.88
2023-04-15T00:11:33.496Z,9.37
2023-04-15T00:14:02.180Z,10.38
2023-04-15T00:16:28.793Z,10.05
2023-04-15T00:18:56.244Z,8.83
2023-04-15T00:21:22.646Z,7.80
2023-04-15T00:23:52.068Z,7.02
2023-04-15T00:26:21.683Z,6.43
2023-04-15T00:28:48.942Z,5.95
2023-04-15T00:31:17.909Z,5.95
2023-04-15T00:33:44.855Z,7.61
2023-04-15T00:36:12.077Z,9.13
2023-04-15T00:38:44.470Z,10.07
2023-04-15T00:41:15.380Z,10.67
2023-04-15T00:43:43.918Z,10.39
2023-04-15T00:46:15.458Z,9.13
2023-04-15T00:48:44.590Z,7.98
2023-04-15T00:51:11.204Z,7.15
2023-04-15T00:53:39.482Z,6.49
2023-04-15T00:56:08.330Z,6.03
2023-04-15T00:58:36.696Z,6.12
2023-04-15T01:01:07.462Z,8.02
2023-04-15T01:03:34.813Z,9.82
2023-04-15T01:06:04.158Z,10.53
2023-04-15T01:08:31.180Z,9.48
2023-04-15T01:11:03.314Z,8.29
2023-04-15T01:13:30.623Z,7.27
2023-04-15T01:15:57.531Z,6.51
2023-04-15T01:18:24.813Z,6.35
2023-04-15T01:20:51.453Z,8.08
2023-04-15T01:23:19.380Z,9.74
2023-04-15T01:25:46.884Z,10.57
2023-04-15T01:28:14.528Z,10.01
2023-04-15T01:30:44.119Z,8.73
2023-04-15T01:33:10.652Z,7.68
2023-04-15T01:35:38.602Z,6.90
2023-04-15T01:38:10.818Z,6.63
2023-04-15T01:40:37.259Z,8.13
2023-04-15T01:43:04.601Z,9.49
2023-04-15T01:45:32.177Z,10.08
2023-04-15T01:47:58.580Z,9.01
2023-04-15T01:50:26.583Z,7.80
2023-04-15T01:52:53.038Z,6.91
2023-04-15T01:55:20.920Z,6.27
2023-04-15T01:57:47.318Z,5.73
2023-04-15T02:00:14.490Z,5.77
2023-04-15T02:02:41.120Z,7.57
2023-04-15T02:05:11.635Z,9.31
2023-04-15T02:07:39.093Z,10.30
2023-04-15T02:10:05.980Z,10.04
2023-04-15T02:12:35.429Z,8.76
2023-04-15T02:15:02.008Z,7.67
2023-04-15T02:17:28.425Z,6.84
2023-04-15T02:20:01.041Z,6.26
2023-04-15T02:22:31.387Z,5.78
2023-04-15T02:24:57.885Z,5.75
2023-04-15T02:27:24.545Z,7.51
2023-04-15T02:29:52.753Z,9.23
2023-04-15T02:32:21.565Z,10.24
2023-04-15T02:34:48.313Z,10.57
2023-04-15T02:37:15.445Z,9.39
2023-04-15T02:39:44.057Z,8.17
2023-04-15T02:42:12.247Z,7.24
2023-04-15T02:44:38.780Z,6.52
2023-04-15T02:47:06.408Z,5.97
2023-04-15T02:49:33.163Z,6.63
2023-04-15T02:52:00.108Z,8.48
2023-04-15T02:54:30.769Z,9.82
2023-04-15T02:56:57.572Z,10.25
2023-04-15T02:59:24.780Z,9.15
2023-04-15T03:01:51.401Z,7.78
2023-04-15T03:04:19.814Z,6.76
2023-04-15T03:06:47.108Z,6.03
2023-04-15T03:09:13.886Z,5.50
2023-04-15T03:11:41.459Z,5.54
2023-04-15T03:14:09.065Z,7.35
2023-04-15T03:16:35.804Z,9.10
2023-04-15T03:19:02.906Z,10.12
2023-04-15T03:21:30.779Z,10.38
2023-04-15T03:23:57.717Z,9.23
2023-04-15T03:26:29.955Z,8.00
2023-04-15T03:28:57.955Z,6.98
2023-04-15T03:31:26.951Z,6.27
2023-04-15T03:33:56.510Z,6.17
2023-04-15T03:36:23.384Z,7.83
2023-04-15T03:38:50.477Z,9.43
2023-04-15T03:41:19.927Z,10.03
2023-04-15T03:43:48.660Z,8.99
2023-04-15T03:46:15.488Z,7.79
2023-04-15T03:48:42.375Z,6.93
2023-04-15T03:51:08.833Z,6.31
2023-04-15T03:53:36.548Z,6.30
2023-04-15T03:56:03.706Z,7.90
2023-04-15T03:58:33.402Z,9.44
2023-04-15T04:01:05.013Z,10.11
2023-04-15T04:03:31.655Z,9.01
2023-04-15T04:06:02.180Z,7.78
2023-04-15T04:08:28.879Z,6.86
2023-04-15T04:10:55.827Z,6.14
2023-04-15T04:13:29.831Z,5.57
2023-04-15T04:15:57.829Z,5.12
2023-04-15T04:18:25.155Z,5.33
2023-04-15T04:20:54.132Z,7.26
2023-04-15T04:23:20.692Z,8.98
2023-04-15T04:25:48.304Z,9.97
2023-04-15T04:28:14.861Z,10.26
2023-04-15T04:30:43.422Z,9.06
2023-04-15T04:33:10.511Z,7.80
2023-04-15T04:35:44.719Z,6.84
2023-04-15T04:38:14.343Z,6.12
2023-04-15T04:40:40.979Z,5.96
2023-04-15T04:43:07.641Z,7.60
2023-04-15T04:45:34.713Z,9.30
2023-04-15T04:48:02.115Z,10.02
2023-04-15T04:50:30.498Z,9.04
2023-04-15T04:53:05.485Z,7.86
2023-04-15T04:55:34.042Z,6.97
2023-04-15T04:58:02.156Z,6.22
2023-04-15T05:00:30.558Z,6.01
2023-04-15T05:02:58.641Z,7.63
2023-04-15T05:05:25.572Z,9.30
2023-04-15T05:07:52.982Z,10.38
2023-04-15T05:10:21.790Z,10.03
2023-04-15T05:12:48.293Z,8.74
2023-04-15T05:15:14.968Z,7.65
2023-04-15T05:17:42.787Z,6.85
2023-04-15T05:20:13.798Z,6.28
2023-04-15T05:22:41.131Z,5.81
2023-04-15T05:25:08.161Z,5.78
2023-04-15T05:27:37.491Z,7.50
2023-04-15T05:30:07.522Z,9.20
2023-04-15T05:32:33.989Z,10.18
2023-04-15T05:35:02.872Z,10.35
2023-04-15T05:37:29.456Z,9.12
2023-04-15T05:39:56.502Z,7.94
2023-04-15T05:42:24.530Z,6.94
2023-04-15T05:44:51.345Z,7.61
2023-04-15T05:47:18.041Z,9.13
2023-04-15T05:49:46.051Z,10.18
2023-04-15T05:52:12.534Z,10.30
2023-04-15T05:54:39.076Z,9.15
2023-04-15T05:57:06.277Z,7.92
2023-04-15T05:59:33.630Z,6.99
2023-04-15T06:02:01.112Z,6.32
2023-04-15T06:04:28.145Z,6.84
2023-04-15T06:06:54.812Z,8.70
2023-04-15T06:09:21.758Z,10.00
2023-04-15T06:11:49.055Z,10.30
2023-04-15T06:14:15.551Z,9.02
2023-04-15T06:16:41.997Z,7.74
2023-04-15T06:19:10.529Z,6.79
2023-04-15T06:21:38.292Z,6.11
2023-04-15T06:24:08.083Z,5.99
2023-04-15T06:26:36.002Z,7.68
2023-04-15T06:29:02.985Z,9.11
2023-04-15T06:31:31.324Z,10.01
2023-04-15T06:34:00.229Z,10.36
2023-04-15T06:36:27.420Z,9.30
2023-04-15T06:38:55.445Z,8.06
2023-04-15T06:41:23.654Z,6.97
2023-04-15T06:43:50.829Z,6.60
2023-04-15T06:46:18.047Z,8.10
2023-04-15T06:48:45.206Z,9.64
2023-04-15T06:51:12.123Z,10.22
2023-04-15T06:53:41.651Z,9.18
2023-04-15T06:56:10.334Z,7.96
2023-04-15T06:58:36.772Z,7.03
2023-04-15T07:01:04.814Z,6.48
2023-04-15T07:03:32.950Z,7.42
2023-04-15T07:06:02.387Z,8.83
2023-04-15T07:08:30.056Z,9.98
2023-04-15T07:10:57.888Z,10.38
2023-04-15T07:13:24.533Z,9.16
2023-04-15T07:15:51.952Z,7.86
2023-04-15T07:18:19.868Z,6.88
2023-04-15T07:20:48.274Z,6.56
2023-04-15T07:23:30.091Z,7.97
2023-04-15T07:25:59.701Z,9.46
2023-04-15T07:28:26.750Z,10.31
2023-04-15T07:30:53.328Z,10.82
2023-04-15T07:33:20.529Z,10.03
2023-04-15T07:35:47.108Z,8.52
2023-04-15T07:38:14.196Z,7.45
2023-04-15T07:40:44.702Z,6.66
2023-04-15T07:43:12.936Z,6.05
2023-04-15T07:45:41.444Z,6.04
2023-04-15T07:48:08.008Z,7.58
2023-04-15T07:50:36.277Z,9.07
2023-04-15T07:53:03.070Z,10.01
2023-04-15T07:55:30.772Z,10.12
2023-04-15T07:57:57.265Z,8.86
2023-04-15T08:00:26.270Z,7.69
2023-04-15T08:02:54.362Z,6.99
2023-04-15T08:05:21.613Z,8.02
2023-04-15T08:07:48.121Z,9.37
2023-04-15T08:10:17.292Z,10.11
2023-04-15T08:12:48.708Z,10.18
2023-04-15T08:15:17.786Z,9.04
2023-04-15T08:17:44.720Z,7.84
2023-04-15T08:20:12.722Z,7.45
2023-04-15T08:22:39.301Z,8.58
2023-04-15T08:25:08.523Z,9.65
2023-04-15T08:27:35.598Z,10.40
2023-04-15T08:30:04.636Z,10.43
2023-04-15T08:32:33.359Z,9.09
2023-04-15T08:35:01.122Z,7.90
2023-04-15T08:37:29.233Z,7.28
2023-04-15T08:39:57.193Z,8.45
2023-04-15T08:42:38.639Z,9.75
2023-04-15T08:45:09.103Z,10.55
2023-04-15T08:47:39.635Z,10.21
2023-04-15T08:50:11.436Z,8.93
2023-04-15T08:52:41.921Z,7.93
2023-04-15T08:55:10.924Z,7.27
2023-04-15T08:57:39.343Z,6.74
2023-04-15T09:00:08.789Z,6.66
2023-04-15T09:02:36.188Z,8.19
2023-04-15T09:05:06.970Z,9.76
2023-04-15T09:07:36.212Z,10.82
2023-04-15T09:10:17.898Z,11.05
2023-04-15T09:12:44.676Z,9.68
2023-04-15T09:15:20.310Z,8.45
2023-04-15T09:17:50.393Z,7.56
2023-04-15T09:20:22.500Z,7.63
2023-04-15T09:22:52.656Z,9.38
2023-04-15T09:25:22.446Z,10.68
2023-04-15T09:27:59.102Z,11.42
2023-04-15T09:30:29.440Z,11.00
2023-04-15T09:32:59.404Z,9.67
2023-04-15T09:35:28.209Z,8.48
2023-04-15T09:38:09.612Z,7.59
2023-04-15T09:40:45.174Z,7.52
2023-04-15T09:43:16.135Z,9.29
2023-04-15T09:45:53.977Z,10.57
2023-04-15T09:48:32.441Z,11.31
2023-04-15T09:51:01.196Z,10.14
2023-04-15T09:53:35.968Z,8.79
2023-04-15T09:56:03.082Z,7.85
2023-04-15T09:58:34.540Z,7.44
2023-04-15T10:01:07.050Z,8.68
2023-04-15T10:03:38.166Z,9.92
2023-04-15T10:06:07.283Z,10.08
2023-04-15T10:08:37.020Z,9.04
2023-04-15T10:11:05.537Z,8.18
2023-04-15T10:13:34.657Z,9.18
2023-04-15T10:16:16.314Z,10.49
2023-04-15T10:18:46.437Z,10.59
2023-04-15T10:21:17.829Z,9.44
2023-04-15T10:23:48.355Z,8.20
2023-04-15T10:26:16.835Z,8.41
2023-04-15T10:28:49.541Z,9.82
2023-04-15T10:31:18.141Z,10.67
2023-04-15T10:33:51.365Z,11.11
2023-04-15T10:36:23.543Z,10.00
2023-04-15T10:38:50.069Z,8.63
2023-04-15T10:41:26.304Z,7.95
2023-04-15T10:43:57.332Z,9.14
2023-04-15T10:46:42.774Z,10.15
2023-04-15T10:49:17.546Z,10.31
2023-04-15T10:51:58.534Z,9.14
2023-04-15T10:54:27.746Z,8.11
2023-04-15T10:57:03.239Z,9.06
2023-04-15T10:59:36.230Z,10.41
2023-04-15T11:02:06.861Z,11.19
2023-04-15T11:04:54.378Z,11.32
2023-04-15T11:07:46.542Z,9.74
2023-04-15T11:10:12.913Z,8.17
2023-04-15T11:12:45.452Z,8.29
2023-04-15T11:15:41.418Z,9.82
2023-04-15T11:18:16.423Z,10.97
2023-04-15T11:20:50.165Z,10.82
2023-04-15T11:23:31.874Z,9.50
2023-04-15T11:26:02.099Z,8.27
2023-04-15T11:28:33.326Z,8.81
2023-04-15T11:31:08.306Z,10.15
2023-04-15T11:33:36.627Z,10.77
2023-04-15T11:36:04.333Z,9.94
2023-04-15T11:38:32.207Z,8.66
2023-04-15T11:40:59.005Z,8.04
2023-04-15T11:43:31.834Z,9.25
2023-04-15T11:46:01.851Z,10.61
2023-04-15T11:48:31.965Z,11.30
2023-04-15T11:51:09.688Z,10.69
2023-04-15T11:53:45.764Z,9.33
2023-04-15T11:56:24.538Z,8.33
2023-04-15T11:59:00.161Z,7.87
2023-04-15T12:01:39.130Z,9.06
2023-04-15T12:04:24.246Z,10.32
2023-04-15T12:06:53.456Z,11.31
2023-04-15T12:09:21.137Z,10.82
2023-04-15T12:11:52.846Z,9.55
2023-04-15T12:14:33.000Z,8.60
2023-04-15T12:17:04.128Z,8.39
2023-04-15T12:19:37.356Z,9.75
2023-04-15T12:22:11.965Z,11.05
2023-04-15T12:24:39.900Z,11.89
2023-04-15T12:27:09.288Z,12.04
2023-04-15T12:29:38.770Z,10.78
2023-04-15T12:32:19.192Z,9.53
2023-04-15T12:34:57.549Z,8.83
2023-04-15T12:37:29.794Z,9.78
2023-04-15T12:39:56.384Z,10.74
2023-04-15T12:42:23.116Z,11.30
2023-04-15T12:44:51.453Z,11.02
2023-04-15T12:47:18.142Z,9.67
2023-04-15T12:49:45.576Z,8.72
2023-04-15T12:52:16.691Z,8.38
2023-04-15T12:54:43.416Z,9.56
2023-04-15T12:57:11.030Z,10.75
2023-04-15T12:59:38.287Z,11.15
2023-04-15T13:02:10.302Z,10.46
2023-04-15T13:04:38.153Z,9.37
2023-04-15T13:07:05.128Z,8.49
2023-04-15T13:09:31.785Z,8.61
2023-04-15T13:12:10.052Z,9.80
2023-04-15T13:14:38.792Z,10.79
2023-04-15T13:17:09.592Z,11.44
2023-04-15T13:19:36.909Z,11.41
2023-04-15T13:22:04.530Z,10.34
2023-04-15T13:24:31.379Z,9.23
2023-04-15T13:26:59.375Z,8.69
2023-04-15T13:29:26.849Z,9.68
2023-04-15T13:31:53.662Z,10.81
2023-04-15T13:34:20.394Z,11.27
2023-04-15T13:36:47.788Z,10.56
2023-04-15T13:39:15.313Z,9.41
2023-04-15T13:41:44.409Z,8.82
2023-04-15T13:44:21.537Z,9.73
2023-04-15T13:46:50.770Z,10.83
2023-04-15T13:49:21.589Z,10.87
2023-04-15T13:51:47.969Z,9.95
2023-04-15T13:54:14.833Z,8.97
2023-04-15T13:56:46.404Z,8.53
2023-04-15T13:59:12.925Z,9.47
2023-04-15T14:01:42.014Z,10.58
2023-04-15T14:04:08.722Z,11.21
2023-04-15T14:06:35.569Z,10.72
2023-04-15T14:09:02.633Z,9.62
2023-04-15T14:11:35.015Z,9.39
2023-04-15T14:14:03.239Z,10.43
2023-04-15T14:16:40.347Z,11.03
2023-04-15T14:19:07.712Z,10.99
2023-04-15T14:21:38.055Z,10.08
2023-04-15T14:24:06.217Z,9.16
2023-04-15T14:26:36.837Z,9.16
2023-04-15T14:29:04.952Z,10.31
2023-04-15T14:31:33.037Z,10.60
2023-04-15T14:34:01.688Z,10.71
2023-04-15T14:36:32.117Z,11.19
2023-04-15T14:38:59.163Z,11.24
2023-04-15T14:41:27.235Z,10.64
2023-04-15T14:43:53.694Z,9.58
2023-04-15T14:46:22.375Z,9.61
2023-04-15T14:48:52.752Z,10.22
2023-04-15T14:51:22.108Z,10.51
2023-04-15T14:53:48.817Z,10.92
2023-04-15T14:56:17.938Z,11.49
2023-04-15T14:58:45.411Z,10.86
2023-04-15T15:01:13.968Z,9.64
2023-04-15T15:03:41.080Z,9.52
2023-04-15T15:06:08.458Z,10.40
2023-04-15T15:08:38.675Z,11.06
2023-04-15T15:11:05.966Z,11.50
2023-04-15T15:13:33.221Z,11.55
2023-04-15T15:16:04.363Z,10.24
2023-04-15T15:18:32.938Z,9.37
2023-04-15T15:21:01.228Z,9.88
2023-04-15T15:23:27.991Z,10.62
2023-04-15T15:25:55.135Z,10.84
2023-04-15T15:28:23.106Z,11.48
2023-04-15T15:30:50.315Z,10.97
2023-04-15T15:33:17.288Z,9.91
2023-04-15T15:35:44.473Z,9.13
2023-04-15T15:38:13.035Z,9.77
2023-04-15T15:40:40.323Z,10.99
2023-04-15T15:43:11.202Z,11.63
2023-04-15T15:45:38.086Z,11.03
2023-04-15T15:48:07.697Z,9.97
2023-04-15T15:50:35.342Z,9.25
2023-04-15T15:53:06.784Z,10.20
2023-04-15T15:55:35.270Z,11.45
2023-04-15T15:58:03.049Z,12.07
2023-04-15T16:00:31.035Z,11.10
2023-04-15T16:05:29.095Z,10.13
2023-04-15T16:07:56.027Z,11.15
2023-04-15T16:10:22.656Z,11.50
2023-04-15T16:12:49.415Z,10.57
2023-04-15T16:15:20.032Z,9.56
2023-04-15T16:17:48.744Z,9.93
2023-04-15T16:20:18.565Z,10.96
2023-04-15T16:22:45.312Z,11.34
2023-04-15T16:25:15.078Z,10.78
2023-04-15T16:27:54.647Z,9.83
2023-04-15T16:30:26.654Z,9.32
2023-04-15T16:32:54.001Z,10.15
2023-04-15T16:35:22.155Z,10.98
2023-04-15T16:37:49.126Z,11.45
2023-04-15T16:40:20.255Z,11.58
2023-04-15T16:42:47.405Z,10.50
2023-04-15T16:45:18.425Z,9.56
2023-04-15T16:47:49.042Z,9.97
2023-04-15T16:50:16.310Z,10.87
2023-04-15T16:52:42.957Z,11.47
2023-04-15T16:55:10.839Z,11.75
2023-04-15T16:58:00.592Z,10.77
2023-04-15T17:00:25.447Z,9.63
2023-04-15T17:02:52.279Z,10.30
2023-04-15T17:05:19.547Z,11.25
2023-04-15T17:07:50.660Z,11.94
2023-04-15T17:10:25.336Z,12.00
2023-04-15T17:12:53.214Z,10.89
2023-04-15T17:15:21.997Z,9.79
2023-04-15T17:17:53.512Z,8.95
2023-04-15T17:20:21.898Z,8.69
2023-04-15T17:22:51.662Z,9.82
2023-04-15T17:25:21.230Z,11.00
2023-04-15T17:27:48.223Z,11.52
2023-04-15T17:30:17.219Z,11.97
2023-04-15T17:32:44.262Z,11.14
2023-04-15T17:35:11.623Z,9.83
2023-04-15T17:37:41.210Z,9.26
2023-04-15T17:40:09.250Z,10.24
2023-04-15T17:42:36.991Z,11.18
2023-04-15T17:45:06.091Z,11.68
2023-04-15T17:47:33.234Z,10.91
2023-04-15T17:50:01.186Z,9.82
2023-04-15T17:52:27.687Z,9.27
2023-04-15T17:54:55.345Z,10.33
2023-04-15T17:57:23.258Z,11.51
2023-04-15T17:59:51.092Z,12.24
2023-04-15T18:02:19.755Z,11.80
2023-04-15T18:04:47.108Z,10.58
2023-04-15T18:07:17.462Z,9.62
2023-04-15T18:09:46.134Z,9.27
2023-04-15T18:12:12.700Z,10.64
2023-04-15T18:14:39.616Z,12.01
2023-04-15T18:17:07.123Z,12.54
2023-04-15T18:19:34.015Z,11.51
2023-04-15T18:22:01.398Z,10.28
2023-04-15T18:24:29.822Z,9.33
2023-04-15T18:26:57.097Z,8.64
2023-04-15T18:29:24.921Z,9.27
2023-04-15T18:31:52.824Z,10.78
2023-04-15T18:34:19.894Z,11.86
2023-04-15T18:36:48.417Z,12.02
2023-04-15T18:39:16.214Z,10.91
2023-04-15T18:41:44.301Z,9.67
2023-04-15T18:44:15.877Z,8.77
2023-04-15T18:46:43.961Z,8.12
2023-04-15T18:49:11.781Z,8.04
2023-04-15T18:51:41.722Z,9.55
2023-04-15T18:54:08.678Z,10.95
2023-04-15T18:56:39.208Z,11.79
2023-04-15T18:59:28.105Z,12.10
2023-04-15T19:02:01.191Z,10.84
2023-04-15T19:04:31.835Z,9.66
2023-04-15T19:06:59.415Z,8.80
2023-04-15T19:09:27.364Z,8.47
2023-04-15T19:11:56.236Z,9.86
2023-04-15T19:14:24.777Z,11.39
2023-04-15T19:16:56.710Z,12.44
2023-04-15T19:19:29.298Z,12.43
2023-04-15T19:21:57.281Z,11.07
2023-04-15T19:24:24.909Z,9.91
2023-04-15T19:26:51.390Z,9.05
2023-04-15T19:29:20.102Z,8.36
2023-04-15T19:31:49.068Z,7.81
2023-04-15T19:34:16.119Z,7.75
2023-04-15T19:36:42.521Z,9.29
2023-04-15T19:39:10.261Z,10.88
2023-04-15T19:41:40.002Z,11.73
2023-04-15T19:44:11.262Z,11.98
2023-04-15T19:46:40.727Z,10.72
2023-04-15T19:49:07.563Z,9.40
2023-04-15T19:51:34.982Z,9.04
2023-04-15T19:54:02.995Z,10.47
2023-04-15T19:56:32.832Z,11.42
2023-04-15T19:59:02.616Z,10.86
2023-04-15T20:01:30.770Z,9.47
2023-04-15T20:03:57.614Z,9.32
2023-04-15T20:06:26.407Z,10.15
2023-04-15T20:08:55.467Z,10.67
2023-04-15T20:12:46.324Z,10.48
2023-04-15T20:14:21.236Z,8.97
2023-04-15T20:16:49.306Z,9.10
2023-04-15T20:19:16.506Z,9.91
2023-04-15T20:21:46.697Z,10.78
2023-04-15T20:24:14.407Z,10.31
2023-04-15T20:26:42.946Z,8.92
2023-04-15T20:29:12.583Z,9.25
2023-04-15T20:31:39.029Z,10.42
2023-04-15T20:34:12.098Z,10.65
2023-04-15T20:36:38.744Z,9.58
2023-04-15T20:39:05.733Z,8.96
2023-04-15T20:41:32.825Z,9.71
2023-04-15T20:43:59.846Z,10.44
2023-04-15T20:46:28.061Z,10.71
2023-04-15T20:48:56.285Z,10.39
2023-04-15T20:51:23.412Z,9.19
2023-04-15T20:53:50.742Z,8.99
2023-04-15T20:56:18.450Z,9.97
2023-04-15T20:58:45.083Z,10.61
2023-04-15T21:01:15.214Z,10.37
2023-04-15T21:03:41.978Z,9.14
2023-04-15T21:06:12.650Z,9.39
2023-04-15T21:08:42.116Z,10.76
2023-04-15T21:11:11.138Z,11.35
2023-04-15T21:13:37.604Z,10.40
2023-04-15T21:16:04.553Z,9.15
2023-04-15T21:18:31.274Z,8.65
2023-04-15T21:21:00.287Z,9.35
2023-04-15T21:23:35.221Z,9.92
2023-04-15T21:26:06.085Z,10.29
2023-04-15T21:28:32.572Z,10.46
2023-04-15T21:31:00.565Z,10.33
2023-04-15T21:33:27.142Z,9.20
2023-04-15T21:35:54.275Z,8.92
2023-04-15T21:38:23.402Z,9.79
2023-04-15T21:40:51.782Z,10.08
2023-04-15T21:43:22.630Z,10.56
2023-04-15T21:46:21.151Z,10.75
2023-04-15T21:48:37.304Z,9.62
2023-04-15T21:51:07.948Z,8.57
2023-04-15T21:53:34.386Z,8.64
2023-04-15T21:56:02.107Z,9.44
2023-04-15T21:58:30.882Z,10.33
2023-04-15T22:00:59.841Z,10.36
2023-04-15T22:03:34.995Z,9.30
2023-04-15T22:06:03.426Z,9.19
2023-04-15T22:08:41.265Z,9.95
2023-04-15T22:11:26.293Z,10.98
2023-04-15T22:13:57.071Z,10.27
2023-04-15T22:16:27.831Z,8.96
2023-04-15T22:18:55.814Z,9.26
2023-04-15T22:21:25.860Z,9.80
2023-04-15T22:23:53.022Z,10.60
2023-04-15T22:26:39.943Z,10.38
2023-04-15T22:29:07.892Z,9.10
2023-04-15T22:31:36.158Z,9.12
2023-04-15T22:34:03.476Z,9.71
2023-04-15T22:36:31.189Z,10.27
2023-04-15T22:39:05.513Z,11.05
2023-04-15T22:41:32.272Z,10.18
2023-04-15T22:44:00.601Z,8.89
2023-04-15T22:46:27.535Z,8.53
2023-04-15T22:48:54.520Z,9.62
2023-04-15T22:51:23.533Z,10.58
2023-04-15T22:53:50.272Z,10.84
2023-04-15T22:56:22.725Z,9.96
2023-04-15T22:58:50.057Z,8.81
2023-04-15T23:01:17.601Z,8.51
2023-04-15T23:03:57.547Z,9.81
2023-04-15T23:06:33.535Z,11.22
2023-04-15T23:09:00.259Z,11.74
2023-04-15T23:11:27.021Z,10.64
2023-04-15T23:13:55.894Z,9.40
2023-04-15T23:16:25.010Z,8.95
2023-04-15T23:18:53.088Z,10.30
2023-04-15T23:21:20.346Z,11.19
2023-04-15T23:23:47.064Z,10.25
2023-04-15T23:26:13.587Z,9.06
2023-04-15T23:28:40.481Z,9.83
2023-04-15T23:31:07.402Z,11.04
2023-04-15T23:33:34.091Z,11.36
2023-04-15T23:36:00.712Z,10.32
2023-04-15T23:38:27.648Z,9.21
2023-04-15T23:40:55.911Z,8.38
2023-04-15T23:43:25.323Z,7.79
2023-04-15T23:45:52.189Z,8.76
2023-04-15T23:48:18.673Z,10.52
2023-04-15T23:50:45.857Z,11.66
2023-04-15T23:53:12.370Z,11.26
2023-04-15T23:55:40.147Z,9.97
2023-04-15T23:58:08.757Z,8.93
